sensor_id;sensor_type;location;lat;lon;timestamp;P1;durP1;ratioP1;P2;durP2;ratioP2
21621;SDS011;10973;46.706;12.340;2023-04-12T00:01:33;1.50;;;1.40;;
21621;SDS011;10973;46.706;12.340;2023-04-12T00:04:00;1.70;;;1.60;;
21621;SDS011;10973;46.706;12.340;2023-04-12T00:06:29;1.33;;;1.33;;
21621;SDS011;10973;46.706;12.340;2023-04-12T00:08:58;1.87;;;1.77;;
21621;SDS011;10973;46.706;12.340;2023-04-12T00:11:26;1.50;;;1.40;;
21621;SDS011;10973;46.706;12.340;2023-04-12T00:13:54;1.70;;;1.60;;
21621;SDS011;10973;46.706;12.340;2023-04-12T00:16:21;2.47;;;1.90;;
21621;SDS011;10973;46.706;12.340;2023-04-12T00:18:49;1.27;;;1.27;;
21621;SDS011;10973;46.706;12.340;2023-04-12T00:21:16;1.43;;;1.23;;
21621;SDS011;10973;46.706;12.340;2023-04-12T00:23:46;1.23;;;1.23;;
21621;SDS011;10973;46.706;12.340;2023-04-12T00:26:14;2.37;;;1.40;;
21621;SDS011;10973;46.706;12.340;2023-04-12T00:28:41;1.17;;;1.17;;
21621;SDS011;10973;46.706;12.340;2023-04-12T00:31:08;1.20;;;1.20;;
21621;SDS011;10973;46.706;12.340;2023-04-12T00:33:36;1.43;;;1.40;;
21621;SDS011;10973;46.706;12.340;2023-04-12T00:36:03;1.47;;;1.37;;
21621;SDS011;10973;46.706;12.340;2023-04-12T00:38:31;1.37;;;1.37;;
21621;SDS011;10973;46.706;12.340;2023-04-12T00:40:58;1.30;;;1.20;;
21621;SDS011;10973;46.706;12.340;2023-04-12T00:43:26;1.40;;;1.30;;
21621;SDS011;10973;46.706;12.340;2023-04-12T00:45:53;1.23;;;1.23;;
21621;SDS011;10973;46.706;12.340;2023-04-12T00:48:23;1.70;;;1.60;;
21621;SDS011;10973;46.706;12.340;2023-04-12T00:50:52;1.70;;;1.60;;
21621;SDS011;10973;46.706;12.340;2023-04-12T00:53:20;1.37;;;1.20;;
21621;SDS011;10973;46.706;12.340;2023-04-12T00:55:48;1.00;;;1.00;;
21621;SDS011;10973;46.706;12.340;2023-04-12T00:58:16;1.03;;;1.03;;
21621;SDS011;10973;46.706;12.340;2023-04-12T01:00:44;1.20;;;1.20;;
21621;SDS011;10973;46.706;12.340;2023-04-12T01:03:11;1.20;;;1.10;;
21621;SDS011;10973;46.706;12.340;2023-04-12T01:05:45;0.97;;;0.93;;
21621;SDS011;10973;46.706;12.340;2023-04-12T01:08:26;1.10;;;1.10;;
21621;SDS011;10973;46.706;12.340;2023-04-12T01:14:10;1.20;;;1.20;;
21621;SDS011;10973;46.706;12.340;2023-04-12T01:16:54;0.97;;;0.97;;
21621;SDS011;10973;46.706;12.340;2023-04-12T01:22:12;1.10;;;1.10;;
21621;SDS011;10973;46.706;12.340;2023-04-12T01:28:14;1.13;;;1.13;;
21621;SDS011;10973;46.706;12.340;2023-04-12T01:30:49;1.10;;;1.10;;
21621;SDS011;10973;46.706;12.340;2023-04-12T01:33:17;1.07;;;1.07;;
21621;SDS011;10973;46.706;12.340;2023-04-12T01:35:47;1.10;;;1.07;;
21621;SDS011;10973;46.706;12.340;2023-04-12T01:38:16;2.73;;;1.30;;
21621;SDS011;10973;46.706;12.340;2023-04-12T01:40:45;1.20;;;1.20;;
21621;SDS011;10973;46.706;12.340;2023-04-12T01:43:14;0.97;;;0.97;;
21621;SDS011;10973;46.706;12.340;2023-04-12T01:45:41;1.20;;;1.20;;
21621;SDS011;10973;46.706;12.340;2023-04-12T01:48:10;1.10;;;1.10;;
21621;SDS011;10973;46.706;12.340;2023-04-12T01:50:55;1.13;;;1.13;;
21621;SDS011;10973;46.706;12.340;2023-04-12T01:56:39;1.00;;;1.00;;
21621;SDS011;10973;46.706;12.340;2023-04-12T01:59:14;0.90;;;0.90;;
21621;SDS011;10973;46.706;12.340;2023-04-12T02:01:44;1.67;;;1.57;;
21621;SDS011;10973;46.706;12.340;2023-04-12T02:04:13;1.10;;;1.10;;
21621;SDS011;10973;46.706;12.340;2023-04-12T02:06:45;0.90;;;0.90;;
21621;SDS011;10973;46.706;12.340;2023-04-12T02:09:13;0.97;;;0.97;;
21621;SDS011;10973;46.706;12.340;2023-04-12T02:11:40;0.87;;;0.87;;
21621;SDS011;10973;46.706;12.340;2023-04-12T02:14:12;1.10;;;1.10;;
21621;SDS011;10973;46.706;12.340;2023-04-12T02:16:39;0.80;;;0.80;;
21621;SDS011;10973;46.706;12.340;2023-04-12T02:19:07;1.10;;;1.10;;
21621;SDS011;10973;46.706;12.340;2023-04-12T02:21:41;0.90;;;0.90;;
21621;SDS011;10973;46.706;12.340;2023-04-12T02:24:11;1.30;;;1.27;;
21621;SDS011;10973;46.706;12.340;2023-04-12T02:26:40;0.83;;;0.83;;
21621;SDS011;10973;46.706;12.340;2023-04-12T02:29:08;0.90;;;0.90;;
21621;SDS011;10973;46.706;12.340;2023-04-12T02:31:36;0.90;;;0.90;;
21621;SDS011;10973;46.706;12.340;2023-04-12T02:34:04;1.00;;;1.00;;
21621;SDS011;10973;46.706;12.340;2023-04-12T02:36:31;1.07;;;1.07;;
21621;SDS011;10973;46.706;12.340;2023-04-12T02:38:59;1.03;;;0.97;;
21621;SDS011;10973;46.706;12.340;2023-04-12T02:41:26;1.23;;;1.10;;
21621;SDS011;10973;46.706;12.340;2023-04-12T02:43:53;1.10;;;1.10;;
21621;SDS011;10973;46.706;12.340;2023-04-12T02:46:22;1.53;;;1.10;;
21621;SDS011;10973;46.706;12.340;2023-04-12T02:48:51;0.97;;;0.97;;
21621;SDS011;10973;46.706;12.340;2023-04-12T02:51:18;1.13;;;1.10;;
21621;SDS011;10973;46.706;12.340;2023-04-12T02:53:45;1.30;;;1.20;;
21621;SDS011;10973;46.706;12.340;2023-04-12T02:56:12;1.10;;;1.10;;
21621;SDS011;10973;46.706;12.340;2023-04-12T02:58:40;1.30;;;1.30;;
21621;SDS011;10973;46.706;12.340;2023-04-12T03:01:07;1.17;;;1.17;;
21621;SDS011;10973;46.706;12.340;2023-04-12T03:03:34;1.10;;;1.10;;
21621;SDS011;10973;46.706;12.340;2023-04-12T03:06:02;1.10;;;1.10;;
21621;SDS011;10973;46.706;12.340;2023-04-12T03:08:29;1.23;;;1.20;;
21621;SDS011;10973;46.706;12.340;2023-04-12T03:10:57;1.10;;;1.10;;
21621;SDS011;10973;46.706;12.340;2023-04-12T03:13:24;0.93;;;0.93;;
21621;SDS011;10973;46.706;12.340;2023-04-12T03:15:54;1.30;;;1.20;;
21621;SDS011;10973;46.706;12.340;2023-04-12T03:18:24;1.20;;;1.13;;
21621;SDS011;10973;46.706;12.340;2023-04-12T03:20:51;2.20;;;1.20;;
21621;SDS011;10973;46.706;12.340;2023-04-12T03:23:18;1.10;;;1.10;;
21621;SDS011;10973;46.706;12.340;2023-04-12T03:25:45;1.23;;;1.20;;
21621;SDS011;10973;46.706;12.340;2023-04-12T03:28:12;1.10;;;1.10;;
21621;SDS011;10973;46.706;12.340;2023-04-12T03:30:40;1.23;;;1.23;;
21621;SDS011;10973;46.706;12.340;2023-04-12T03:33:07;1.53;;;1.43;;
21621;SDS011;10973;46.706;12.340;2023-04-12T03:35:34;1.20;;;1.20;;
21621;SDS011;10973;46.706;12.340;2023-04-12T03:38:01;1.13;;;1.13;;
21621;SDS011;10973;46.706;12.340;2023-04-12T03:40:29;1.17;;;1.17;;
21621;SDS011;10973;46.706;12.340;2023-04-12T03:42:56;1.37;;;1.27;;
21621;SDS011;10973;46.706;12.340;2023-04-12T03:45:26;1.30;;;1.30;;
21621;SDS011;10973;46.706;12.340;2023-04-12T03:47:53;1.40;;;1.40;;
21621;SDS011;10973;46.706;12.340;2023-04-12T03:50:21;2.97;;;1.30;;
21621;SDS011;10973;46.706;12.340;2023-04-12T03:52:48;1.10;;;1.10;;
21621;SDS011;10973;46.706;12.340;2023-04-12T03:55:15;3.23;;;1.37;;
21621;SDS011;10973;46.706;12.340;2023-04-12T03:57:42;2.47;;;1.40;;
21621;SDS011;10973;46.706;12.340;2023-04-12T04:00:10;2.60;;;1.40;;
21621;SDS011;10973;46.706;12.340;2023-04-12T04:02:38;1.87;;;1.60;;
21621;SDS011;10973;46.706;12.340;2023-04-12T04:05:05;1.47;;;1.37;;
21621;SDS011;10973;46.706;12.340;2023-04-12T04:07:33;1.40;;;1.40;;
21621;SDS011;10973;46.706;12.340;2023-04-12T04:10:00;1.97;;;1.77;;
21621;SDS011;10973;46.706;12.340;2023-04-12T04:12:27;2.93;;;2.13;;
21621;SDS011;10973;46.706;12.340;2023-04-12T04:14:54;2.90;;;2.07;;
21621;SDS011;10973;46.706;12.340;2023-04-12T04:17:22;1.40;;;1.40;;
21621;SDS011;10973;46.706;12.340;2023-04-12T04:19:51;1.50;;;1.50;;
21621;SDS011;10973;46.706;12.340;2023-04-12T04:22:19;1.50;;;1.40;;
21621;SDS011;10973;46.706;12.340;2023-04-12T04:24:47;1.70;;;1.60;;
21621;SDS011;10973;46.706;12.340;2023-04-12T04:27:14;1.40;;;1.30;;
21621;SDS011;10973;46.706;12.340;2023-04-12T04:29:41;1.63;;;1.53;;
21621;SDS011;10973;46.706;12.340;2023-04-12T04:32:09;3.53;;;1.90;;
21621;SDS011;10973;46.706;12.340;2023-04-12T04:34:38;3.17;;;1.70;;
21621;SDS011;10973;46.706;12.340;2023-04-12T04:37:05;4.40;;;1.80;;
21621;SDS011;10973;46.706;12.340;2023-04-12T04:39:32;1.50;;;1.50;;
21621;SDS011;10973;46.706;12.340;2023-04-12T04:41:59;1.60;;;1.50;;
21621;SDS011;10973;46.706;12.340;2023-04-12T04:44:26;1.70;;;1.60;;
21621;SDS011;10973;46.706;12.340;2023-04-12T04:46:56;1.70;;;1.60;;
21621;SDS011;10973;46.706;12.340;2023-04-12T04:49:24;1.83;;;1.73;;
21621;SDS011;10973;46.706;12.340;2023-04-12T04:51:51;2.23;;;2.10;;
21621;SDS011;10973;46.706;12.340;2023-04-12T04:54:18;3.27;;;1.80;;
21621;SDS011;10973;46.706;12.340;2023-04-12T04:56:45;2.03;;;1.80;;
21621;SDS011;10973;46.706;12.340;2023-04-12T04:59:12;2.50;;;2.30;;
21621;SDS011;10973;46.706;12.340;2023-04-12T05:01:40;3.53;;;2.20;;
21621;SDS011;10973;46.706;12.340;2023-04-12T05:04:07;3.70;;;3.10;;
21621;SDS011;10973;46.706;12.340;2023-04-12T05:06:34;5.93;;;4.30;;
21621;SDS011;10973;46.706;12.340;2023-04-12T05:09:01;7.23;;;3.30;;
21621;SDS011;10973;46.706;12.340;2023-04-12T05:11:29;10.93;;;3.70;;
21621;SDS011;10973;46.706;12.340;2023-04-12T05:13:56;15.57;;;4.20;;
21621;SDS011;10973;46.706;12.340;2023-04-12T05:16:24;6.27;;;4.33;;
21621;SDS011;10973;46.706;12.340;2023-04-12T05:18:51;6.57;;;5.73;;
21621;SDS011;10973;46.706;12.340;2023-04-12T05:21:18;5.80;;;5.27;;
21621;SDS011;10973;46.706;12.340;2023-04-12T05:23:46;8.90;;;5.57;;
21621;SDS011;10973;46.706;12.340;2023-04-12T05:26:13;6.87;;;6.00;;
21621;SDS011;10973;46.706;12.340;2023-04-12T05:28:51;11.43;;;8.97;;
21621;SDS011;10973;46.706;12.340;2023-04-12T05:31:18;9.40;;;7.07;;
21621;SDS011;10973;46.706;12.340;2023-04-12T05:33:46;5.27;;;4.77;;
21621;SDS011;10973;46.706;12.340;2023-04-12T05:36:13;4.53;;;4.13;;
21621;SDS011;10973;46.706;12.340;2023-04-12T05:38:40;7.00;;;5.83;;
21621;SDS011;10973;46.706;12.340;2023-04-12T05:41:07;4.87;;;4.47;;
21621;SDS011;10973;46.706;12.340;2023-04-12T05:43:35;3.40;;;3.10;;
21621;SDS011;10973;46.706;12.340;2023-04-12T05:46:03;3.27;;;2.90;;
21621;SDS011;10973;46.706;12.340;2023-04-12T05:48:31;3.30;;;3.00;;
21621;SDS011;10973;46.706;12.340;2023-04-12T05:50:58;5.23;;;3.50;;
21621;SDS011;10973;46.706;12.340;2023-04-12T05:53:27;3.73;;;3.10;;
21621;SDS011;10973;46.706;12.340;2023-04-12T05:55:54;3.23;;;3.03;;
21621;SDS011;10973;46.706;12.340;2023-04-12T05:58:22;3.53;;;2.90;;
21621;SDS011;10973;46.706;12.340;2023-04-12T06:00:49;3.23;;;2.93;;
21621;SDS011;10973;46.706;12.340;2023-04-12T06:03:16;3.67;;;3.37;;
21621;SDS011;10973;46.706;12.340;2023-04-12T06:05:43;3.90;;;3.47;;
21621;SDS011;10973;46.706;12.340;2023-04-12T06:08:11;6.23;;;4.77;;
21621;SDS011;10973;46.706;12.340;2023-04-12T06:10:38;4.50;;;4.10;;
21621;SDS011;10973;46.706;12.340;2023-04-12T06:13:06;3.30;;;3.00;;
21621;SDS011;10973;46.706;12.340;2023-04-12T06:15:33;4.53;;;3.30;;
21621;SDS011;10973;46.706;12.340;2023-04-12T06:18:00;4.27;;;3.20;;
21621;SDS011;10973;46.706;12.340;2023-04-12T06:20:27;4.50;;;3.03;;
21621;SDS011;10973;46.706;12.340;2023-04-12T06:22:55;2.60;;;2.40;;
21621;SDS011;10973;46.706;12.340;2023-04-12T06:25:22;3.97;;;2.70;;
21621;SDS011;10973;46.706;12.340;2023-04-12T06:27:49;4.00;;;2.43;;
21621;SDS011;10973;46.706;12.340;2023-04-12T06:30:17;3.27;;;2.73;;
21621;SDS011;10973;46.706;12.340;2023-04-12T06:32:45;4.20;;;2.70;;
21621;SDS011;10973;46.706;12.340;2023-04-12T06:35:12;4.67;;;3.30;;
21621;SDS011;10973;46.706;12.340;2023-04-12T06:37:39;5.43;;;3.63;;
21621;SDS011;10973;46.706;12.340;2023-04-12T06:40:08;3.70;;;3.33;;
21621;SDS011;10973;46.706;12.340;2023-04-12T06:42:35;5.17;;;3.77;;
21621;SDS011;10973;46.706;12.340;2023-04-12T06:45:02;4.47;;;3.20;;
21621;SDS011;10973;46.706;12.340;2023-04-12T06:47:30;2.97;;;2.77;;
21621;SDS011;10973;46.706;12.340;2023-04-12T06:49:58;4.67;;;3.20;;
21621;SDS011;10973;46.706;12.340;2023-04-12T06:52:26;4.27;;;3.07;;
21621;SDS011;10973;46.706;12.340;2023-04-12T06:54:54;4.43;;;3.50;;
21621;SDS011;10973;46.706;12.340;2023-04-12T06:57:21;4.90;;;4.20;;
21621;SDS011;10973;46.706;12.340;2023-04-12T06:59:48;6.17;;;4.27;;
21621;SDS011;10973;46.706;12.340;2023-04-12T07:02:15;3.60;;;3.30;;
21621;SDS011;10973;46.706;12.340;2023-04-12T07:04:43;3.80;;;3.20;;
21621;SDS011;10973;46.706;12.340;2023-04-12T07:07:11;3.13;;;2.80;;
21621;SDS011;10973;46.706;12.340;2023-04-12T07:09:38;3.83;;;3.20;;
21621;SDS011;10973;46.706;12.340;2023-04-12T07:12:05;2.80;;;2.60;;
21621;SDS011;10973;46.706;12.340;2023-04-12T07:14:33;5.33;;;3.23;;
21621;SDS011;10973;46.706;12.340;2023-04-12T07:17:00;6.47;;;3.63;;
21621;SDS011;10973;46.706;12.340;2023-04-12T07:19:27;3.83;;;3.53;;
21621;SDS011;10973;46.706;12.340;2023-04-12T07:21:54;5.77;;;3.57;;
21621;SDS011;10973;46.706;12.340;2023-04-12T07:24:22;2.97;;;2.77;;
21621;SDS011;10973;46.706;12.340;2023-04-12T07:26:51;3.00;;;2.70;;
21621;SDS011;10973;46.706;12.340;2023-04-12T07:29:19;2.50;;;2.30;;
21621;SDS011;10973;46.706;12.340;2023-04-12T07:31:46;2.97;;;2.50;;
21621;SDS011;10973;46.706;12.340;2023-04-12T07:34:14;2.60;;;2.40;;
21621;SDS011;10973;46.706;12.340;2023-04-12T07:36:41;2.67;;;2.47;;
21621;SDS011;10973;46.706;12.340;2023-04-12T07:39:09;3.03;;;2.33;;
21621;SDS011;10973;46.706;12.340;2023-04-12T07:41:37;3.07;;;2.30;;
21621;SDS011;10973;46.706;12.340;2023-04-12T07:44:07;2.63;;;2.40;;
21621;SDS011;10973;46.706;12.340;2023-04-12T07:46:35;3.23;;;2.33;;
21621;SDS011;10973;46.706;12.340;2023-04-12T07:49:04;2.53;;;2.33;;
21621;SDS011;10973;46.706;12.340;2023-04-12T07:51:32;2.30;;;2.10;;
21621;SDS011;10973;46.706;12.340;2023-04-12T07:53:59;2.73;;;2.07;;
21621;SDS011;10973;46.706;12.340;2023-04-12T07:56:26;2.23;;;2.13;;
21621;SDS011;10973;46.706;12.340;2023-04-12T07:58:53;2.03;;;1.90;;
21621;SDS011;10973;46.706;12.340;2023-04-12T08:01:21;2.57;;;2.20;;
21621;SDS011;10973;46.706;12.340;2023-04-12T08:03:48;2.77;;;2.20;;
21621;SDS011;10973;46.706;12.340;2023-04-12T08:06:15;2.33;;;2.13;;
21621;SDS011;10973;46.706;12.340;2023-04-12T08:08:43;3.47;;;1.90;;
21621;SDS011;10973;46.706;12.340;2023-04-12T08:11:10;2.37;;;2.17;;
21621;SDS011;10973;46.706;12.340;2023-04-12T08:13:37;4.60;;;3.10;;
21621;SDS011;10973;46.706;12.340;2023-04-12T08:16:04;3.20;;;2.20;;
21621;SDS011;10973;46.706;12.340;2023-04-12T08:18:32;2.40;;;2.20;;
21621;SDS011;10973;46.706;12.340;2023-04-12T08:21:00;2.43;;;2.27;;
21621;SDS011;10973;46.706;12.340;2023-04-12T08:23:27;2.00;;;1.90;;
21621;SDS011;10973;46.706;12.340;2023-04-12T08:25:55;2.20;;;2.10;;
21621;SDS011;10973;46.706;12.340;2023-04-12T08:28:22;2.37;;;2.17;;
21621;SDS011;10973;46.706;12.340;2023-04-12T08:30:49;2.70;;;2.30;;
21621;SDS011;10973;46.706;12.340;2023-04-12T08:33:17;4.30;;;2.20;;
21621;SDS011;10973;46.706;12.340;2023-04-12T08:35:44;5.13;;;2.97;;
21621;SDS011;10973;46.706;12.340;2023-04-12T08:38:11;2.67;;;2.47;;
21621;SDS011;10973;46.706;12.340;2023-04-12T08:40:40;2.43;;;2.23;;
21621;SDS011;10973;46.706;12.340;2023-04-12T08:43:08;2.70;;;2.50;;
21621;SDS011;10973;46.706;12.340;2023-04-12T08:45:38;2.00;;;1.90;;
21621;SDS011;10973;46.706;12.340;2023-04-12T08:48:05;2.13;;;1.60;;
21621;SDS011;10973;46.706;12.340;2023-04-12T08:50:32;1.93;;;1.83;;
21621;SDS011;10973;46.706;12.340;2023-04-12T08:53:00;4.60;;;4.07;;
21621;SDS011;10973;46.706;12.340;2023-04-12T08:55:28;2.80;;;2.60;;
21621;SDS011;10973;46.706;12.340;2023-04-12T08:57:56;3.00;;;2.53;;
21621;SDS011;10973;46.706;12.340;2023-04-12T09:00:24;3.00;;;2.80;;
21621;SDS011;10973;46.706;12.340;2023-04-12T09:02:52;4.40;;;4.00;;
21621;SDS011;10973;46.706;12.340;2023-04-12T09:05:24;2.80;;;2.60;;
21621;SDS011;10973;46.706;12.340;2023-04-12T09:07:56;5.73;;;4.60;;
21621;SDS011;10973;46.706;12.340;2023-04-12T09:13:00;3.90;;;3.60;;
21621;SDS011;10973;46.706;12.340;2023-04-12T09:15:28;3.77;;;3.03;;
21621;SDS011;10973;46.706;12.340;2023-04-12T09:18:06;3.00;;;2.67;;
21621;SDS011;10973;46.706;12.340;2023-04-12T09:20:35;3.70;;;2.90;;
21621;SDS011;10973;46.706;12.340;2023-04-12T09:23:17;2.77;;;2.57;;
21621;SDS011;10973;46.706;12.340;2023-04-12T09:25:47;4.57;;;2.70;;
21621;SDS011;10973;46.706;12.340;2023-04-12T09:28:22;2.30;;;2.20;;
21621;SDS011;10973;46.706;12.340;2023-04-12T09:30:55;3.27;;;2.37;;
21621;SDS011;10973;46.706;12.340;2023-04-12T09:36:03;1.60;;;1.33;;
21621;SDS011;10973;46.706;12.340;2023-04-12T09:38:32;1.80;;;1.70;;
21621;SDS011;10973;46.706;12.340;2023-04-12T09:41:19;1.50;;;1.50;;
21621;SDS011;10973;46.706;12.340;2023-04-12T09:43:52;1.80;;;1.70;;
21621;SDS011;10973;46.706;12.340;2023-04-12T09:46:19;2.23;;;2.13;;
21621;SDS011;10973;46.706;12.340;2023-04-12T09:48:48;2.63;;;2.03;;
21621;SDS011;10973;46.706;12.340;2023-04-12T09:51:27;4.87;;;4.27;;
21621;SDS011;10973;46.706;12.340;2023-04-12T09:54:00;5.97;;;4.00;;
21621;SDS011;10973;46.706;12.340;2023-04-12T09:56:35;4.23;;;3.83;;
21621;SDS011;10973;46.706;12.340;2023-04-12T09:59:03;4.77;;;4.37;;
21621;SDS011;10973;46.706;12.340;2023-04-12T10:01:37;5.13;;;4.60;;
21621;SDS011;10973;46.706;12.340;2023-04-12T10:04:06;5.50;;;5.00;;
21621;SDS011;10973;46.706;12.340;2023-04-12T10:06:35;6.50;;;5.90;;
21621;SDS011;10973;46.706;12.340;2023-04-12T10:09:03;6.07;;;5.57;;
21621;SDS011;10973;46.706;12.340;2023-04-12T10:11:31;9.33;;;8.43;;
21621;SDS011;10973;46.706;12.340;2023-04-12T10:14:00;10.03;;;9.10;;
21621;SDS011;10973;46.706;12.340;2023-04-12T10:16:29;10.80;;;9.80;;
21621;SDS011;10973;46.706;12.340;2023-04-12T10:19:00;10.53;;;9.50;;
21621;SDS011;10973;46.706;12.340;2023-04-12T10:21:29;10.90;;;9.67;;
21621;SDS011;10973;46.706;12.340;2023-04-12T10:23:57;11.57;;;10.37;;
21621;SDS011;10973;46.706;12.340;2023-04-12T10:26:25;13.30;;;9.90;;
21621;SDS011;10973;46.706;12.340;2023-04-12T10:31:48;12.83;;;9.43;;
21621;SDS011;10973;46.706;12.340;2023-04-12T10:34:16;10.47;;;9.47;;
21621;SDS011;10973;46.706;12.340;2023-04-12T10:37:02;9.40;;;8.60;;
21621;SDS011;10973;46.706;12.340;2023-04-12T10:39:42;10.30;;;9.37;;
21621;SDS011;10973;46.706;12.340;2023-04-12T10:42:21;9.90;;;8.90;;
21621;SDS011;10973;46.706;12.340;2023-04-12T10:50:26;10.47;;;9.47;;
21621;SDS011;10973;46.706;12.340;2023-04-12T10:55:38;12.03;;;9.60;;
21621;SDS011;10973;46.706;12.340;2023-04-12T10:58:06;16.30;;;9.97;;
21621;SDS011;10973;46.706;12.340;2023-04-12T11:03:26;10.60;;;9.60;;
21621;SDS011;10973;46.706;12.340;2023-04-12T11:05:55;10.37;;;9.37;;
21621;SDS011;10973;46.706;12.340;2023-04-12T11:08:50;10.17;;;9.17;;
21621;SDS011;10973;46.706;12.340;2023-04-12T11:11:21;11.03;;;10.00;;
21621;SDS011;10973;46.706;12.340;2023-04-12T11:13:53;9.47;;;8.63;;
21621;SDS011;10973;46.706;12.340;2023-04-12T11:16:21;10.53;;;9.33;;
21621;SDS011;10973;46.706;12.340;2023-04-12T11:18:48;10.30;;;9.33;;
21621;SDS011;10973;46.706;12.340;2023-04-12T11:21:16;12.13;;;10.93;;
21621;SDS011;10973;46.706;12.340;2023-04-12T11:23:44;10.20;;;9.17;;
21621;SDS011;10973;46.706;12.340;2023-04-12T11:26:23;10.33;;;9.30;;
21621;SDS011;10973;46.706;12.340;2023-04-12T11:28:55;11.17;;;10.07;;
21621;SDS011;10973;46.706;12.340;2023-04-12T11:31:22;10.97;;;9.87;;
21621;SDS011;10973;46.706;12.340;2023-04-12T11:33:50;10.37;;;9.37;;
21621;SDS011;10973;46.706;12.340;2023-04-12T11:36:17;11.17;;;9.03;;
21621;SDS011;10973;46.706;12.340;2023-04-12T11:38:45;10.40;;;8.90;;
21621;SDS011;10973;46.706;12.340;2023-04-12T11:41:13;10.20;;;9.20;;
21621;SDS011;10973;46.706;12.340;2023-04-12T11:43:41;10.77;;;9.50;;
21621;SDS011;10973;46.706;12.340;2023-04-12T11:46:08;9.87;;;8.93;;
21621;SDS011;10973;46.706;12.340;2023-04-12T11:48:36;11.60;;;10.33;;
21621;SDS011;10973;46.706;12.340;2023-04-12T11:51:19;10.70;;;9.70;;
21621;SDS011;10973;46.706;12.340;2023-04-12T11:53:53;12.00;;;9.57;;
21621;SDS011;10973;46.706;12.340;2023-04-12T11:56:21;9.83;;;8.93;;
21621;SDS011;10973;46.706;12.340;2023-04-12T11:58:49;12.77;;;9.37;;
21621;SDS011;10973;46.706;12.340;2023-04-12T12:01:20;15.30;;;9.47;;
21621;SDS011;10973;46.706;12.340;2023-04-12T12:03:49;11.37;;;9.70;;
21621;SDS011;10973;46.706;12.340;2023-04-12T12:06:17;10.37;;;9.37;;
21621;SDS011;10973;46.706;12.340;2023-04-12T12:08:47;10.10;;;9.10;;
21621;SDS011;10973;46.706;12.340;2023-04-12T12:11:19;12.27;;;9.30;;
21621;SDS011;10973;46.706;12.340;2023-04-12T12:13:51;10.10;;;9.10;;
21621;SDS011;10973;46.706;12.340;2023-04-12T12:16:27;11.10;;;8.87;;
21621;SDS011;10973;46.706;12.340;2023-04-12T12:18:56;10.20;;;9.10;;
21621;SDS011;10973;46.706;12.340;2023-04-12T12:21:24;9.67;;;8.70;;
21621;SDS011;10973;46.706;12.340;2023-04-12T12:23:51;14.87;;;9.50;;
21621;SDS011;10973;46.706;12.340;2023-04-12T12:26:19;11.43;;;10.13;;
21621;SDS011;10973;46.706;12.340;2023-04-12T12:28:52;10.20;;;9.30;;
21621;SDS011;10973;46.706;12.340;2023-04-12T12:31:23;12.53;;;9.77;;
21621;SDS011;10973;46.706;12.340;2023-04-12T12:33:56;11.03;;;9.93;;
21621;SDS011;10973;46.706;12.340;2023-04-12T12:36:28;10.60;;;9.57;;
21621;SDS011;10973;46.706;12.340;2023-04-12T12:39:09;11.43;;;10.23;;
21621;SDS011;10973;46.706;12.340;2023-04-12T12:41:38;11.30;;;10.10;;
21621;SDS011;10973;46.706;12.340;2023-04-12T12:44:06;10.73;;;9.63;;
21621;SDS011;10973;46.706;12.340;2023-04-12T12:46:34;11.10;;;9.90;;
21621;SDS011;10973;46.706;12.340;2023-04-12T12:49:04;10.23;;;9.20;;
21621;SDS011;10973;46.706;12.340;2023-04-12T12:51:31;9.90;;;9.00;;
21621;SDS011;10973;46.706;12.340;2023-04-12T12:53:58;11.47;;;10.37;;
21621;SDS011;10973;46.706;12.340;2023-04-12T12:56:26;11.43;;;9.53;;
21621;SDS011;10973;46.706;12.340;2023-04-12T12:58:53;11.57;;;10.40;;
21621;SDS011;10973;46.706;12.340;2023-04-12T13:01:21;11.50;;;9.60;;
21621;SDS011;10973;46.706;12.340;2023-04-12T13:03:48;15.83;;;9.90;;
21621;SDS011;10973;46.706;12.340;2023-04-12T13:06:16;11.40;;;10.30;;
21621;SDS011;10973;46.706;12.340;2023-04-12T13:08:43;10.87;;;9.77;;
21621;SDS011;10973;46.706;12.340;2023-04-12T13:11:10;12.00;;;10.77;;
21621;SDS011;10973;46.706;12.340;2023-04-12T13:13:37;11.43;;;10.23;;
21621;SDS011;10973;46.706;12.340;2023-04-12T13:16:04;11.43;;;9.77;;
21621;SDS011;10973;46.706;12.340;2023-04-12T13:18:32;10.97;;;9.70;;
21621;SDS011;10973;46.706;12.340;2023-04-12T13:21:00;11.13;;;9.83;;
21621;SDS011;10973;46.706;12.340;2023-04-12T13:23:27;12.90;;;11.50;;
21621;SDS011;10973;46.706;12.340;2023-04-12T13:25:54;16.13;;;10.10;;
21621;SDS011;10973;46.706;12.340;2023-04-12T13:28:21;12.77;;;11.33;;
21621;SDS011;10973;46.706;12.340;2023-04-12T13:30:48;11.07;;;9.90;;
21621;SDS011;10973;46.706;12.340;2023-04-12T13:33:16;14.43;;;12.97;;
21621;SDS011;10973;46.706;12.340;2023-04-12T13:35:47;11.07;;;10.07;;
21621;SDS011;10973;46.706;12.340;2023-04-12T13:38:14;12.50;;;10.60;;
21621;SDS011;10973;46.706;12.340;2023-04-12T13:40:41;11.67;;;10.50;;
21621;SDS011;10973;46.706;12.340;2023-04-12T13:43:08;13.07;;;11.37;;
21621;SDS011;10973;46.706;12.340;2023-04-12T13:45:36;11.20;;;10.10;;
21621;SDS011;10973;46.706;12.340;2023-04-12T13:48:04;11.27;;;10.07;;
21621;SDS011;10973;46.706;12.340;2023-04-12T13:50:31;10.43;;;9.40;;
21621;SDS011;10973;46.706;12.340;2023-04-12T13:52:58;11.47;;;9.70;;
21621;SDS011;10973;46.706;12.340;2023-04-12T13:55:25;11.43;;;10.00;;
21621;SDS011;10973;46.706;12.340;2023-04-12T13:57:53;11.83;;;9.57;;
21621;SDS011;10973;46.706;12.340;2023-04-12T14:00:20;10.57;;;9.53;;
21621;SDS011;10973;46.706;12.340;2023-04-12T14:02:47;9.67;;;8.70;;
21621;SDS011;10973;46.706;12.340;2023-04-12T14:05:15;9.53;;;8.63;;
21621;SDS011;10973;46.706;12.340;2023-04-12T14:07:42;9.90;;;9.00;;
21621;SDS011;10973;46.706;12.340;2023-04-12T14:10:09;9.73;;;8.83;;
21621;SDS011;10973;46.706;12.340;2023-04-12T14:12:36;10.70;;;9.60;;
21621;SDS011;10973;46.706;12.340;2023-04-12T14:15:04;10.17;;;9.17;;
21621;SDS011;10973;46.706;12.340;2023-04-12T14:17:32;13.63;;;10.17;;
21621;SDS011;10973;46.706;12.340;2023-04-12T14:19:59;10.37;;;9.27;;
21621;SDS011;10973;46.706;12.340;2023-04-12T14:22:26;11.43;;;10.30;;
21621;SDS011;10973;46.706;12.340;2023-04-12T14:24:54;11.20;;;8.87;;
21621;SDS011;10973;46.706;12.340;2023-04-12T14:27:21;13.63;;;9.83;;
21621;SDS011;10973;46.706;12.340;2023-04-12T14:29:48;10.23;;;9.23;;
21621;SDS011;10973;46.706;12.340;2023-04-12T14:32:15;11.47;;;10.27;;
21621;SDS011;10973;46.706;12.340;2023-04-12T14:34:42;12.93;;;11.63;;
21621;SDS011;10973;46.706;12.340;2023-04-12T14:37:10;16.20;;;14.13;;
21621;SDS011;10973;46.706;12.340;2023-04-12T14:39:37;11.97;;;10.77;;
21621;SDS011;10973;46.706;12.340;2023-04-12T14:42:04;11.00;;;9.90;;
21621;SDS011;10973;46.706;12.340;2023-04-12T14:44:32;13.87;;;10.17;;
21621;SDS011;10973;46.706;12.340;2023-04-12T14:46:59;10.67;;;9.50;;
21621;SDS011;10973;46.706;12.340;2023-04-12T14:49:26;10.13;;;9.13;;
21621;SDS011;10973;46.706;12.340;2023-04-12T14:51:58;10.33;;;9.23;;
21621;SDS011;10973;46.706;12.340;2023-04-12T14:54:27;9.83;;;8.73;;
21621;SDS011;10973;46.706;12.340;2023-04-12T14:56:54;9.90;;;8.93;;
21621;SDS011;10973;46.706;12.340;2023-04-12T14:59:21;9.17;;;8.23;;
21621;SDS011;10973;46.706;12.340;2023-04-12T15:01:49;10.93;;;8.00;;
21621;SDS011;10973;46.706;12.340;2023-04-12T15:04:16;9.83;;;8.30;;
21621;SDS011;10973;46.706;12.340;2023-04-12T15:06:44;9.60;;;8.47;;
21621;SDS011;10973;46.706;12.340;2023-04-12T15:09:12;9.03;;;7.83;;
21621;SDS011;10973;46.706;12.340;2023-04-12T15:11:40;9.70;;;8.70;;